createdAt,value
2022-09-23T00:01:33.677Z,6.67
2022-09-23T00:04:01.798Z,6.72
2022-09-23T00:06:30.926Z,6.70
2022-09-23T00:08:58.792Z,6.65
2022-09-23T00:11:28.665Z,6.61
2022-09-23T00:13:59.906Z,6.60
2022-09-23T00:16:30.110Z,6.69
2022-09-23T00:18:58.102Z,6.74
2022-09-23T00:21:26.130Z,6.68
2022-09-23T00:23:55.372Z,6.78
2022-09-23T00:26:24.263Z,6.60
2022-09-23T00:28:52.529Z,6.51
2022-09-23T00:31:22.688Z,6.53
2022-09-23T00:33:54.084Z,6.51
2022-09-23T00:36:21.949Z,6.57
2022-09-23T00:38:49.759Z,6.53
2022-09-23T00:41:19.857Z,6.46
2022-09-23T00:43:50.869Z,6.50
2022-09-23T00:46:21.829Z,6.47
2022-09-23T00:48:54.807Z,6.40
2022-09-23T00:51:25.405Z,6.44
2022-09-23T00:53:53.997Z,6.43
2022-09-23T00:56:25.272Z,6.60
2022-09-23T00:58:54.785Z,6.53
2022-09-23T01:01:22.730Z,6.44
2022-09-23T01:03:52.045Z,6.36
2022-09-23T01:06:20.401Z,6.39
2022-09-23T01:08:48.634Z,6.46
2022-09-23T01:11:44.640Z,6.37
2022-09-23T01:14:29.098Z,6.35
2022-09-23T01:17:02.916Z,6.35
2022-09-23T01:20:03.461Z,6.26
2022-09-23T01:22:39.230Z,6.25
2022-09-23T01:25:31.513Z,6.22
2022-09-23T01:28:18.868Z,6.25
2022-09-23T01:30:56.137Z,6.30
2022-09-23T01:33:29.298Z,6.34
2022-09-23T01:36:11.148Z,6.33
2022-09-23T01:38:46.082Z,6.43
2022-09-23T01:41:24.481Z,6.32
2022-09-23T01:43:59.209Z,6.21
2022-09-23T01:46:33.890Z,6.19
2022-09-23T01:49:09.290Z,6.18
2022-09-23T01:51:40.342Z,6.15
2022-09-23T01:54:15.855Z,6.11
2022-09-23T01:56:52.300Z,6.24
2022-09-23T01:59:26.276Z,6.26
2022-09-23T02:02:00.995Z,6.23
2022-09-23T02:04:33.377Z,6.15
2022-09-23T02:07:07.147Z,6.07
2022-09-23T02:09:41.079Z,6.08
2022-09-23T02:12:14.722Z,6.00
2022-09-23T02:14:50.018Z,5.99
2022-09-23T02:17:25.808Z,5.95
2022-09-23T02:19:57.945Z,5.90
2022-09-23T02:22:30.687Z,5.94
2022-09-23T02:24:59.132Z,5.89
2022-09-23T02:27:31.987Z,5.86
2022-09-23T02:30:09.685Z,5.80
2022-09-23T02:32:49.274Z,5.82
2022-09-23T02:35:22.600Z,5.95
2022-09-23T02:38:01.761Z,5.96
2022-09-23T02:40:38.024Z,5.84
2022-09-23T02:43:13.208Z,5.87
2022-09-23T02:45:41.059Z,5.77
2022-09-23T02:48:14.689Z,5.70
2022-09-23T02:50:42.782Z,5.64
2022-09-23T02:53:10.695Z,5.62
2022-09-23T02:55:38.616Z,5.60
2022-09-23T02:58:06.642Z,5.68
2022-09-23T03:00:45.402Z,5.73
2022-09-23T03:03:40.303Z,5.64
2022-09-23T03:06:16.664Z,5.65
2022-09-23T03:08:53.446Z,5.60
2022-09-23T03:11:21.907Z,5.67
2022-09-23T03:14:06.646Z,5.64
2022-09-23T03:16:41.176Z,5.64
2022-09-23T03:19:18.109Z,5.64
2022-09-23T03:21:50.488Z,5.71
2022-09-23T03:24:21.589Z,5.64
2022-09-23T03:26:50.848Z,5.66
2022-09-23T03:29:20.213Z,5.64
2022-09-23T03:31:48.723Z,5.59
2022-09-23T03:34:22.924Z,5.65
2022-09-23T03:36:53.993Z,5.67
2022-09-23T03:39:30.826Z,5.66
2022-09-23T03:42:01.771Z,5.70
2022-09-23T03:44:31.086Z,5.80
2022-09-23T03:47:03.813Z,5.73
2022-09-23T03:49:36.285Z,5.65
2022-09-23T03:52:04.787Z,5.61
2022-09-23T03:54:33.926Z,5.60
2022-09-23T03:57:03.024Z,5.59
2022-09-23T03:59:31.663Z,5.53
2022-09-23T04:02:00.534Z,5.52
2022-09-23T04:04:28.457Z,5.51
2022-09-23T04:06:57.709Z,5.45
2022-09-23T04:09:25.559Z,5.40
2022-09-23T04:11:54.239Z,5.40
2022-09-23T04:14:23.331Z,5.30
2022-09-23T04:16:53.109Z,5.39
2022-09-23T04:19:20.953Z,5.52
2022-09-23T04:21:48.802Z,5.43
2022-09-23T04:24:18.357Z,5.44
2022-09-23T04:26:46.117Z,5.48
2022-09-23T04:29:14.068Z,5.38
2022-09-23T04:31:42.087Z,5.40
2022-09-23T04:34:10.394Z,5.46
2022-09-23T04:36:38.481Z,5.41
2022-09-23T04:39:06.479Z,5.35
2022-09-23T04:41:35.701Z,5.30
2022-09-23T04:44:03.738Z,5.25
2022-09-23T04:46:31.598Z,5.27
2022-09-23T04:48:59.510Z,5.28
2022-09-23T04:51:28.397Z,5.41
2022-09-23T04:53:56.762Z,5.43
2022-09-23T04:56:26.469Z,5.32
2022-09-23T04:58:57.130Z,5.33
2022-09-23T05:01:26.875Z,5.30
2022-09-23T05:03:57.205Z,5.23
2022-09-23T05:06:26.079Z,5.12
2022-09-23T05:08:55.768Z,5.08
2022-09-23T05:11:24.635Z,5.03
2022-09-23T05:13:54.125Z,5.10
2022-09-23T05:16:24.636Z,5.04
2022-09-23T05:18:53.217Z,5.13
2022-09-23T05:21:23.371Z,5.17
2022-09-23T05:23:54.109Z,5.12
2022-09-23T05:26:22.974Z,5.32
2022-09-23T05:28:51.039Z,5.43
2022-09-23T05:31:21.043Z,5.58
2022-09-23T05:33:52.746Z,5.46
2022-09-23T05:36:23.029Z,5.52
2022-09-23T05:38:51.785Z,5.55
2022-09-23T05:41:22.960Z,5.65
2022-09-23T05:43:51.558Z,5.72
2022-09-23T05:46:20.891Z,5.76
2022-09-23T05:48:50.655Z,5.92
2022-09-23T05:51:20.151Z,5.88
2022-09-23T05:53:48.779Z,5.96
2022-09-23T05:56:18.712Z,6.05
2022-09-23T05:58:49.453Z,6.12
2022-09-23T06:01:21.078Z,6.24
2022-09-23T06:03:50.284Z,6.18
2022-09-23T06:06:22.185Z,6.17
2022-09-23T06:08:49.912Z,6.27
2022-09-23T06:11:17.784Z,6.49
2022-09-23T06:13:45.551Z,6.71
2022-09-23T06:16:15.101Z,6.71
2022-09-23T06:18:45.050Z,6.67
2022-09-23T06:21:15.688Z,6.71
2022-09-23T06:23:44.377Z,6.89
2022-09-23T06:26:14.199Z,6.92
2022-09-23T06:28:43.889Z,6.86
2022-09-23T06:31:14.949Z,6.93
2022-09-23T06:34:09.818Z,7.06
2022-09-23T06:36:44.452Z,7.28
2022-09-23T06:39:14.161Z,7.35
2022-09-23T06:41:42.191Z,7.42
2022-09-23T06:44:13.375Z,7.39
2022-09-23T06:46:41.472Z,7.58
2022-09-23T06:49:09.284Z,7.72
2022-09-23T06:51:37.047Z,7.76
2022-09-23T06:54:06.494Z,7.88
2022-09-23T06:56:38.745Z,7.96
2022-09-23T06:59:08.303Z,8.07
2022-09-23T07:01:36.240Z,8.15
2022-09-23T07:04:04.104Z,8.13
2022-09-23T07:06:31.876Z,8.25
2022-09-23T07:09:00.866Z,8.27
2022-09-23T07:11:30.388Z,8.35
2022-09-23T07:13:58.457Z,8.56
2022-09-23T07:16:26.523Z,8.61
2022-09-23T07:18:54.433Z,8.66
2022-09-23T07:21:22.343Z,8.80
2022-09-23T07:23:51.991Z,8.82
2022-09-23T07:26:21.085Z,9.11
2022-09-23T07:28:55.351Z,9.38
2022-09-23T07:31:37.267Z,9.61
2022-09-23T07:34:07.741Z,9.69
2022-09-23T07:36:37.466Z,9.84
2022-09-23T07:39:05.720Z,9.74
2022-09-23T07:41:35.270Z,9.84
2022-09-23T07:44:06.354Z,10.19
2022-09-23T07:46:36.201Z,10.39
2022-09-23T07:49:04.524Z,10.42
2022-09-23T07:51:36.244Z,10.45
2022-09-23T07:54:07.741Z,10.52
2022-09-23T07:56:36.625Z,10.69
2022-09-23T07:59:08.539Z,10.70
2022-09-23T08:01:38.079Z,10.80
2022-09-23T08:04:13.554Z,10.92
2022-09-23T08:06:43.125Z,10.99
2022-09-23T08:09:11.862Z,11.02
2022-09-23T08:11:41.971Z,11.12
2022-09-23T08:14:13.717Z,11.14
2022-09-23T08:16:42.082Z,11.28
2022-09-23T08:19:10.550Z,11.35
2022-09-23T08:21:39.160Z,11.55
2022-09-23T08:24:07.728Z,11.61
2022-09-23T08:26:35.915Z,11.62
2022-09-23T08:29:03.869Z,11.76
2022-09-23T08:31:33.152Z,12.02
2022-09-23T08:34:00.993Z,12.06
2022-09-23T08:36:28.892Z,12.10
2022-09-23T08:38:57.236Z,12.15
2022-09-23T08:41:30.852Z,12.18
2022-09-23T08:44:03.184Z,12.33
2022-09-23T08:46:37.659Z,12.33
2022-09-23T08:49:07.702Z,12.37
2022-09-23T08:51:40.861Z,12.39
2022-09-23T08:54:11.210Z,12.56
2022-09-23T08:56:40.455Z,12.56
2022-09-23T08:59:15.647Z,12.62
2022-09-23T09:01:47.282Z,12.75
2022-09-23T09:04:23.506Z,12.89
2022-09-23T09:07:07.700Z,12.99
2022-09-23T09:09:50.017Z,13.07
2022-09-23T09:12:21.343Z,13.15
2022-09-23T09:14:58.512Z,13.23
2022-09-23T09:17:36.460Z,13.22
2022-09-23T09:20:10.522Z,13.28
2022-09-23T09:22:52.652Z,13.37
2022-09-23T09:25:33.516Z,13.52
2022-09-23T09:28:04.319Z,13.67
2022-09-23T09:30:36.076Z,13.69
2022-09-23T09:33:14.246Z,13.80
2022-09-23T09:35:55.796Z,13.93
2022-09-23T09:38:24.123Z,14.05
2022-09-23T09:40:52.097Z,14.08
2022-09-23T09:43:23.403Z,14.07
2022-09-23T09:46:08.374Z,13.87
2022-09-23T09:48:40.647Z,13.91
2022-09-23T09:51:21.470Z,14.16
2022-09-23T09:53:52.016Z,14.33
2022-09-23T09:56:26.740Z,14.45
2022-09-23T09:58:56.894Z,14.55
2022-09-23T10:01:27.518Z,14.73
2022-09-23T10:03:59.820Z,14.65
2022-09-23T10:06:29.894Z,14.65
2022-09-23T10:09:11.699Z,14.88
2022-09-23T10:11:41.111Z,14.95
2022-09-23T10:14:14.095Z,15.03
2022-09-23T10:16:42.536Z,15.04
2022-09-23T10:19:26.836Z,15.39
2022-09-23T10:21:59.789Z,15.23
2022-09-23T10:24:31.071Z,15.33
2022-09-23T10:27:01.908Z,15.28
2022-09-23T10:29:34.576Z,15.53
2022-09-23T10:32:30.432Z,15.68
2022-09-23T10:35:04.632Z,15.65
2022-09-23T10:37:38.652Z,15.51
2022-09-23T10:40:37.411Z,15.59
2022-09-23T10:43:50.016Z,15.66
2022-09-23T10:46:38.331Z,15.85
2022-09-23T10:49:35.747Z,15.96
2022-09-23T10:52:23.132Z,16.29
2022-09-23T10:55:03.695Z,16.22
2022-09-23T10:57:44.749Z,15.90
2022-09-23T11:00:22.251Z,16.21
2022-09-23T11:03:09.415Z,16.46
2022-09-23T11:05:46.087Z,16.67
2022-09-23T11:08:36.289Z,16.61
2022-09-23T11:11:21.017Z,16.65
2022-09-23T11:14:04.247Z,16.44
2022-09-23T11:16:53.287Z,16.67
2022-09-23T11:19:45.646Z,16.50
2022-09-23T11:22:37.666Z,16.48
2022-09-23T11:25:23.106Z,16.73
2022-09-23T11:28:30.744Z,16.73
2022-09-23T11:31:10.164Z,16.52
2022-09-23T11:33:52.739Z,16.67
2022-09-23T11:36:27.049Z,16.76
2022-09-23T11:38:58.053Z,16.67
2022-09-23T11:41:30.668Z,16.70
2022-09-23T11:44:04.537Z,17.14
2022-09-23T11:46:38.669Z,17.34
2022-09-23T11:49:09.004Z,17.26
2022-09-23T11:51:44.111Z,17.47
2022-09-23T11:54:20.914Z,17.69
2022-09-23T11:56:54.668Z,17.13
2022-09-23T11:59:40.214Z,17.73
2022-09-23T12:02:21.808Z,18.11
2022-09-23T12:05:01.344Z,19.34
2022-09-23T12:07:40.548Z,20.67
2022-09-23T12:10:10.142Z,19.94
2022-09-23T12:12:47.900Z,19.03
2022-09-23T12:15:25.332Z,21.03
2022-09-23T12:18:23.175Z,20.96
2022-09-23T12:21:38.830Z,24.25
2022-09-23T12:24:19.113Z,23.24
2022-09-23T12:26:52.504Z,23.92
2022-09-23T12:29:25.031Z,23.15
2022-09-23T12:31:53.630Z,22.75
2022-09-23T12:34:25.814Z,22.06
2022-09-23T12:36:53.929Z,22.30
2022-09-23T12:39:28.351Z,22.98
2022-09-23T12:41:59.555Z,22.23
2022-09-23T12:44:36.502Z,22.38
2022-09-23T12:47:36.839Z,22.73
2022-09-23T12:50:55.065Z,22.37
2022-09-23T12:53:57.674Z,24.62
2022-09-23T12:56:28.744Z,24.56
2022-09-23T12:59:11.602Z,22.22
2022-09-23T13:01:41.941Z,21.83
2022-09-23T13:04:53.272Z,20.58
2022-09-23T13:07:26.464Z,22.35
2022-09-23T13:10:03.287Z,21.68
2022-09-23T13:12:38.263Z,20.09
2022-09-23T13:15:17.921Z,19.95
2022-09-23T13:17:47.164Z,20.09
2022-09-23T13:20:36.454Z,19.46
2022-09-23T13:23:20.228Z,19.93
2022-09-23T13:25:51.111Z,20.29
2022-09-23T13:28:30.472Z,20.85
2022-09-23T13:30:58.915Z,19.11
2022-09-23T13:33:38.798Z,19.92
2022-09-23T13:36:12.981Z,19.36
2022-09-23T13:38:41.167Z,19.91
2022-09-23T13:41:14.861Z,18.87
2022-09-23T13:43:44.883Z,19.03
2022-09-23T13:46:17.051Z,18.71
2022-09-23T13:48:48.603Z,18.91
2022-09-23T13:51:24.573Z,18.57
2022-09-23T13:53:53.355Z,18.54
2022-09-23T13:56:21.295Z,18.35
2022-09-23T13:58:49.666Z,18.47
2022-09-23T14:01:24.301Z,18.57
2022-09-23T14:03:54.032Z,18.19
2022-09-23T14:06:22.003Z,18.35
2022-09-23T14:08:51.419Z,17.67
2022-09-23T14:11:20.962Z,17.94
2022-09-23T14:13:54.963Z,18.05
2022-09-23T14:16:26.708Z,17.96
2022-09-23T14:19:00.954Z,17.73
2022-09-23T14:21:30.016Z,17.39
2022-09-23T14:23:57.890Z,17.40
2022-09-23T14:26:27.115Z,17.85
2022-09-23T14:28:55.089Z,17.68
2022-09-23T14:31:24.494Z,17.78
2022-09-23T14:33:52.654Z,17.59
2022-09-23T14:36:40.181Z,17.50
2022-09-23T14:39:10.285Z,17.64
2022-09-23T14:41:40.861Z,17.56
2022-09-23T14:44:17.091Z,17.55
2022-09-23T14:46:56.867Z,17.40
2022-09-23T14:49:26.442Z,17.27
2022-09-23T14:51:58.619Z,17.30
2022-09-23T14:54:44.695Z,17.11
2022-09-23T14:57:27.047Z,16.98
2022-09-23T14:59:57.059Z,17.06
2022-09-23T15:02:33.475Z,16.84
2022-09-23T15:05:19.968Z,16.75
2022-09-23T15:07:51.886Z,16.61
2022-09-23T15:10:24.416Z,16.66
2022-09-23T15:12:54.709Z,16.62
2022-09-23T15:15:27.932Z,16.66
2022-09-23T15:17:55.843Z,16.63
2022-09-23T15:20:26.514Z,16.32
2022-09-23T15:22:56.819Z,16.31
2022-09-23T15:25:28.168Z,16.29
2022-09-23T15:28:05.859Z,16.21
2022-09-23T15:30:36.659Z,16.31
2022-09-23T15:33:05.125Z,16.47
2022-09-23T15:35:33.564Z,16.51
2022-09-23T15:38:03.258Z,16.48
2022-09-23T15:40:33.025Z,16.46
2022-09-23T15:43:03.369Z,16.53
2022-09-23T15:45:35.100Z,16.37
2022-09-23T15:48:08.069Z,16.25
2022-09-23T15:50:37.375Z,16.12
2022-09-23T15:53:06.981Z,16.18
2022-09-23T15:55:34.802Z,16.09
2022-09-23T15:58:02.581Z,16.05
2022-09-23T16:00:30.616Z,16.00
2022-09-23T16:02:58.458Z,15.89
2022-09-23T16:05:33.030Z,15.88
2022-09-23T16:08:03.787Z,15.83
2022-09-23T16:10:38.313Z,15.83
2022-09-23T16:13:08.921Z,15.68
2022-09-23T16:15:39.051Z,15.56
2022-09-23T16:18:08.061Z,15.45
2022-09-23T16:20:38.246Z,15.33
2022-09-23T16:23:08.646Z,15.23
2022-09-23T16:25:38.453Z,15.19
2022-09-23T16:28:06.736Z,15.04
2022-09-23T16:30:35.624Z,14.92
2022-09-23T16:33:03.561Z,14.93
2022-09-23T16:35:34.505Z,14.87
2022-09-23T16:38:02.252Z,14.85
2022-09-23T16:40:30.077Z,14.82
2022-09-23T16:43:02.068Z,14.94
2022-09-23T16:45:31.151Z,14.94
2022-09-23T16:47:59.424Z,14.67
2022-09-23T16:50:28.697Z,14.54
2022-09-23T16:52:56.569Z,14.42
2022-09-23T16:55:27.040Z,14.35
2022-09-23T16:57:55.462Z,14.26
2022-09-23T17:00:42.739Z,14.17
2022-09-23T17:03:30.769Z,14.08
2022-09-23T17:05:59.067Z,14.03
2022-09-23T17:08:26.857Z,13.96
2022-09-23T17:11:00.053Z,13.85
2022-09-23T17:13:29.704Z,13.79
2022-09-23T17:15:59.283Z,13.71
2022-09-23T17:18:27.654Z,13.58
2022-09-23T17:21:00.501Z,13.46
2022-09-23T17:23:28.501Z,13.34
2022-09-23T17:25:56.315Z,13.38
2022-09-23T17:28:26.978Z,13.22
2022-09-23T17:31:01.284Z,13.13
2022-09-23T17:33:30.308Z,13.09
2022-09-23T17:35:59.975Z,12.97
2022-09-23T17:38:29.290Z,12.89
2022-09-23T17:40:59.212Z,12.78
2022-09-23T17:43:27.092Z,12.86
2022-09-23T17:45:56.907Z,12.70
2022-09-23T17:48:26.548Z,12.58
2022-09-23T17:50:58.039Z,12.46
2022-09-23T17:53:26.957Z,12.41
2022-09-23T17:56:06.144Z,12.45
2022-09-23T17:58:36.391Z,12.37
2022-09-23T18:01:05.380Z,12.30
2022-09-23T18:03:34.601Z,12.24
2022-09-23T18:06:14.111Z,12.15
2022-09-23T18:08:43.849Z,12.10
2022-09-23T18:11:13.487Z,12.09
2022-09-23T18:13:41.303Z,11.99
2022-09-23T18:16:09.187Z,11.99
2022-09-23T18:18:38.450Z,11.87
2022-09-23T18:21:07.594Z,12.02
2022-09-23T18:23:36.918Z,12.00
2022-09-23T18:26:05.537Z,12.27
2022-09-23T18:28:34.930Z,12.08
2022-09-23T18:31:02.987Z,12.15
2022-09-23T18:33:30.815Z,12.30
2022-09-23T18:36:02.097Z,12.13
2022-09-23T18:38:30.000Z,12.04
2022-09-23T18:40:59.205Z,11.99
2022-09-23T18:43:37.228Z,12.01
2022-09-23T18:46:09.283Z,12.08
2022-09-23T18:48:54.564Z,12.13
2022-09-23T18:51:25.848Z,12.12
2022-09-23T18:53:57.563Z,12.10
2022-09-23T18:56:26.989Z,12.04
2022-09-23T18:58:55.967Z,11.99
2022-09-23T19:01:25.013Z,11.89
2022-09-23T19:03:56.094Z,11.79
2022-09-23T19:06:26.527Z,11.70
2022-09-23T19:08:56.227Z,11.73
2022-09-23T19:11:25.502Z,11.67
2022-09-23T19:13:56.123Z,11.71
2022-09-23T19:16:27.578Z,11.69
2022-09-23T19:18:56.275Z,11.59
2022-09-23T19:21:26.499Z,11.55
2022-09-23T19:23:56.977Z,11.60
2022-09-23T19:26:29.512Z,11.47
2022-09-23T19:28:59.365Z,11.38
2022-09-23T19:31:29.728Z,11.42
2022-09-23T19:33:59.537Z,11.35
2022-09-23T19:36:30.895Z,11.38
2022-09-23T19:39:00.351Z,11.25
2022-09-23T19:41:31.745Z,11.31
2022-09-23T19:44:02.346Z,11.35
2022-09-23T19:46:31.057Z,11.27
2022-09-23T19:48:59.356Z,11.35
2022-09-23T19:51:29.291Z,11.15
2022-09-23T19:53:58.702Z,11.08
2022-09-23T19:56:27.056Z,11.08
2022-09-23T19:58:55.788Z,11.00
2022-09-23T20:01:24.748Z,11.02
2022-09-23T20:03:53.327Z,10.98
2022-09-23T20:06:22.218Z,10.92
2022-09-23T20:08:51.466Z,10.95
2022-09-23T20:11:24.885Z,10.94
2022-09-23T20:14:00.813Z,10.91
2022-09-23T20:16:32.191Z,10.96
2022-09-23T20:19:01.133Z,10.91
2022-09-23T20:21:30.110Z,10.97
2022-09-23T20:23:59.632Z,10.88
2022-09-23T20:26:45.232Z,10.97
2022-09-23T20:29:13.382Z,10.88
2022-09-23T20:31:41.658Z,10.89
2022-09-23T20:34:11.657Z,10.96
2022-09-23T20:36:41.409Z,11.02
2022-09-23T20:39:11.117Z,11.00
2022-09-23T20:41:39.858Z,10.99
2022-09-23T20:44:12.142Z,10.98
2022-09-23T20:46:44.153Z,11.01
2022-09-23T20:49:16.006Z,10.98
2022-09-23T20:51:45.056Z,10.82
2022-09-23T20:54:14.211Z,10.75
2022-09-23T20:56:42.208Z,10.93
2022-09-23T20:59:10.612Z,10.84
2022-09-23T21:01:38.591Z,10.76
2022-09-23T21:04:07.864Z,10.77
2022-09-23T21:06:36.682Z,10.80
2022-09-23T21:09:05.188Z,10.78
2022-09-23T21:11:34.719Z,10.93
2022-09-23T21:14:03.566Z,10.82
2022-09-23T21:16:31.837Z,10.87
2022-09-23T21:19:01.543Z,10.88
2022-09-23T21:21:29.777Z,11.12
2022-09-23T21:24:17.222Z,10.95
2022-09-23T21:26:50.225Z,10.96
2022-09-23T21:29:18.220Z,10.88
2022-09-23T21:31:47.402Z,10.85
2022-09-23T21:34:17.674Z,10.95
2022-09-23T21:36:46.153Z,10.92
2022-09-23T21:39:14.423Z,10.87
2022-09-23T21:41:42.487Z,10.92
2022-09-23T21:44:12.053Z,10.88
2022-09-23T21:46:40.124Z,10.92
2022-09-23T21:49:09.103Z,10.87
2022-09-23T21:51:41.030Z,10.88
2022-09-23T21:54:13.562Z,10.90
2022-09-23T21:56:41.535Z,10.90
2022-09-23T21:59:11.567Z,11.02
2022-09-23T22:01:43.537Z,10.92
2022-09-23T22:04:16.098Z,10.92
2022-09-23T22:06:44.494Z,10.85
2022-09-23T22:09:15.219Z,10.84
2022-09-23T22:12:00.984Z,10.92
2022-09-23T22:14:30.640Z,10.88
2022-09-23T22:17:06.156Z,10.89
2022-09-23T22:19:42.733Z,10.87
2022-09-23T22:22:17.292Z,10.91
2022-09-23T22:24:46.913Z,10.86
2022-09-23T22:27:17.473Z,10.85
2022-09-23T22:30:19.100Z,10.85
2022-09-23T22:32:52.885Z,10.87
2022-09-23T22:35:22.986Z,10.84
2022-09-23T22:37:50.819Z,10.83
2022-09-23T22:40:18.731Z,10.83
2022-09-23T22:42:46.623Z,10.80
2022-09-23T22:45:15.752Z,10.88
2022-09-23T22:47:45.370Z,10.87
2022-09-23T22:50:14.922Z,10.83
2022-09-23T22:52:43.069Z,10.71
2022-09-23T22:55:11.388Z,10.77
2022-09-23T22:57:39.351Z,10.73
2022-09-23T23:00:09.343Z,10.81
2022-09-23T23:02:39.857Z,10.77
2022-09-23T23:05:08.572Z,10.80
2022-09-23T23:07:36.538Z,10.74
2022-09-23T23:10:10.361Z,10.76
2022-09-23T23:12:39.430Z,10.82
2022-09-23T23:15:09.235Z,10.86
2022-09-23T23:17:38.723Z,10.85
2022-09-23T23:20:08.438Z,10.69
2022-09-23T23:22:36.243Z,10.66
2022-09-23T23:25:04.008Z,10.60
2022-09-23T23:27:31.974Z,10.56
2022-09-23T23:29:59.773Z,10.57
2022-09-23T23:32:27.943Z,10.50
2022-09-23T23:34:57.108Z,10.49
2022-09-23T23:37:24.873Z,10.51
2022-09-23T23:39:52.641Z,10.51
2022-09-23T23:42:20.404Z,10.45
2022-09-23T23:44:48.248Z,10.38
2022-09-23T23:47:16.032Z,10.41
2022-09-23T23:49:43.797Z,10.37
2022-09-23T23:52:12.950Z,10.32
2022-09-23T23:54:40.823Z,10.27
2022-09-23T23:57:08.626Z,10.25
2022-09-23T23:59:36.753Z,10.25
